Time;durP1;ratioP1;P1;durP2;ratioP2;P2;SDS_P1;SDS_P2;PMS_P1;PMS_P2;Temp;Humidity;BMP_temperature;BMP_pressure;BME280_temperature;BME280_humidity;BME280_pressure;Samples;Min_cycle;Max_cycle;Signal;HPM_P1;HPM_P2
2021/11/09 00:00:56;;;;;;;10.93;2.55;;;29.50;30.10;;;;;;5092992;28;20662;-65
2021/11/09 00:03:22;;;;;;;14.80;2.78;;;29.30;29.60;;;;;;5096672;28;20575;-64
2021/11/09 00:06:22;;;;;;;4.28;1.45;;;29.30;30.50;;;;;;5097081;28;20084;-64
2021/11/09 00:08:53;;;;;;;4.07;1.70;;;29.20;30.20;;;;;;5091908;28;20096;-66
2021/11/09 00:11:19;;;;;;;11.23;1.60;;;29.10;29.90;;;;;;5097194;28;20437;-65
2021/11/09 00:13:46;;;;;;;12.27;1.90;;;28.90;29.80;;;;;;5078032;28;20092;-65
2021/11/09 00:16:12;;;;;;;7.80;1.70;;;28.90;29.70;;;;;;5077010;28;20085;-66
2021/11/09 00:18:39;;;;;;;9.07;1.80;;;28.80;29.60;;;;;;5079974;28;20982;-64
2021/11/09 00:21:06;;;;;;;5.30;1.45;;;28.70;30.00;;;;;;5096056;28;20080;-65
2021/11/09 00:23:32;;;;;;;8.25;2.05;;;28.50;30.00;;;;;;5077234;28;20213;-66
2021/11/09 00:25:59;;;;;;;10.95;2.00;;;28.40;30.60;;;;;;5078079;28;20614;-64
2021/11/09 00:28:25;;;;;;;18.65;2.15;;;28.30;30.80;;;;;;5078052;28;20064;-64
2021/11/09 00:30:52;;;;;;;9.50;2.13;;;28.20;31.60;;;;;;5077266;28;20254;-64
2021/11/09 00:33:18;;;;;;;7.80;2.13;;;28.10;31.60;;;;;;5077255;28;20088;-67
2021/11/09 00:35:45;;;;;;;13.55;2.08;;;28.00;31.70;;;;;;5077982;28;20088;-64
2021/11/09 00:38:12;;;;;;;14.73;2.20;;;27.90;31.80;;;;;;5060246;28;20159;-67
2021/11/09 00:40:44;;;;;;;16.10;2.67;;;27.80;32.40;;;;;;5060217;28;20085;-65
2021/11/09 00:43:14;;;;;;;12.32;2.70;;;27.60;32.80;;;;;;5077044;28;20112;-64
2021/11/09 00:45:41;;;;;;;19.92;3.60;;;27.50;33.10;;;;;;5076910;28;20207;-65
2021/11/09 00:48:08;;;;;;;13.85;3.58;;;27.40;33.10;;;;;;5079179;28;20543;-65
2021/11/09 00:50:36;;;;;;;13.07;4.05;;;27.40;33.80;;;;;;5078328;28;20098;-64
2021/11/09 00:53:03;;;;;;;17.25;3.70;;;27.30;34.30;;;;;;5076215;28;20088;-65
2021/11/09 00:55:30;;;;;;;14.65;3.53;;;27.20;35.10;;;;;;5077562;28;20136;-66
2021/11/09 00:57:56;;;;;;;22.55;4.00;;;27.10;35.40;;;;;;5077113;28;20107;-64
2021/11/09 01:00:26;;;;;;;20.08;4.72;;;27.00;35.80;;;;;;5060020;28;20534;-65
2021/11/09 01:02:53;;;;;;;20.77;4.82;;;26.90;36.40;;;;;;5075096;28;20277;-64
2021/11/09 01:05:25;;;;;;;30.38;5.80;;;26.80;36.40;;;;;;5076538;28;20121;-63
2021/11/09 01:07:56;;;;;;;31.83;5.78;;;26.60;36.70;;;;;;5094924;28;20071;-64
2021/11/09 01:10:28;;;;;;;28.50;4.72;;;26.60;37.30;;;;;;5077339;28;20137;-68
2021/11/09 01:12:56;;;;;;;31.48;4.93;;;26.50;37.30;;;;;;5075234;28;20069;-63
2021/11/09 01:15:23;;;;;;;33.85;5.38;;;26.40;37.90;;;;;;5076074;28;20091;-63
2021/11/09 01:17:51;;;;;;;38.33;6.43;;;26.20;38.00;;;;;;5076529;28;20072;-63
2021/11/09 01:20:22;;;;;;;49.88;5.85;;;26.10;37.30;;;;;;5076388;28;20721;-63
2021/11/09 01:22:52;;;;;;;38.85;6.50;;;26.10;36.20;;;;;;5094778;28;20145;-63
2021/11/09 01:25:21;;;;;;;41.95;5.60;;;26.10;36.30;;;;;;5094263;28;20076;-62
2021/11/09 01:27:48;;;;;;;31.70;5.97;;;26.00;36.50;;;;;;5095404;28;20076;-62
2021/11/09 01:30:16;;;;;;;38.78;5.65;;;26.00;36.90;;;;;;5076962;28;20065;-64
2021/11/09 01:32:43;;;;;;;36.00;5.78;;;25.90;38.00;;;;;;5060545;28;20168;-64
2021/11/09 01:35:10;;;;;;;26.70;5.18;;;25.80;38.50;;;;;;5075141;28;20191;-64
2021/11/09 01:37:38;;;;;;;40.53;5.95;;;25.70;39.50;;;;;;5094742;28;20519;-64
2021/11/09 01:40:07;;;;;;;41.70;5.85;;;25.60;39.60;;;;;;5060475;28;20081;-65
2021/11/09 01:42:34;;;;;;;53.45;6.40;;;25.50;39.70;;;;;;5094280;28;20122;-64
2021/11/09 01:45:01;;;;;;;40.25;6.70;;;25.40;39.40;;;;;;5075809;28;20076;-63
2021/11/09 01:47:28;;;;;;;50.53;9.38;;;25.30;39.50;;;;;;5076510;28;20083;-63
2021/11/09 01:49:54;;;;;;;57.60;10.20;;;25.20;39.80;;;;;;5076492;28;20111;-65
2021/11/09 01:52:21;;;;;;;59.60;12.27;;;25.10;40.00;;;;;;5076331;28;20079;-64
2021/11/09 01:54:47;;;;;;;59.45;11.43;;;25.00;40.10;;;;;;5093962;28;20428;-66
2021/11/09 01:57:14;;;;;;;68.10;11.93;;;24.90;40.60;;;;;;5076252;28;20166;-63
2021/11/09 01:59:41;;;;;;;61.42;11.10;;;24.80;41.10;;;;;;5092996;28;20104;-66
2021/11/09 02:02:07;;;;;;;66.32;10.10;;;24.60;41.40;;;;;;5075761;28;20084;-66
2021/11/09 02:04:34;;;;;;;57.28;9.45;;;24.60;41.70;;;;;;5077333;28;20060;-63
2021/11/09 02:07:00;;;;;;;57.75;9.23;;;24.60;41.60;;;;;;5059450;28;20076;-64
2021/11/09 02:09:28;;;;;;;60.33;9.52;;;24.50;42.40;;;;;;5076057;28;20076;-65
2021/11/09 02:11:54;;;;;;;76.22;10.55;;;24.50;43.20;;;;;;5076217;28;20108;-63
2021/11/09 02:14:21;;;;;;;66.97;10.38;;;24.30;42.90;;;;;;5075727;28;20072;-64
2021/11/09 02:16:51;;;;;;;70.03;9.90;;;24.20;43.10;;;;;;5075117;28;20076;-66
2021/11/09 02:19:18;;;;;;;73.30;10.52;;;24.20;43.20;;;;;;5075797;28;20114;-64
2021/11/09 02:21:45;;;;;;;62.97;10.23;;;24.20;43.20;;;;;;5094094;28;20515;-64
2021/11/09 02:24:11;;;;;;;69.88;11.02;;;24.10;43.50;;;;;;5074815;28;20187;-64
2021/11/09 02:26:39;;;;;;;79.07;12.23;;;24.00;44.40;;;;;;5075934;28;20165;-64
2021/11/09 02:29:05;;;;;;;77.40;11.88;;;23.90;44.20;;;;;;5075229;28;20076;-62
2021/11/09 02:31:32;;;;;;;61.45;11.13;;;23.90;44.60;;;;;;5093375;28;20091;-65
2021/11/09 02:33:59;;;;;;;55.78;9.85;;;23.80;45.40;;;;;;5093190;28;20160;-63
2021/11/09 02:36:26;;;;;;;67.82;10.70;;;23.80;45.20;;;;;;5075735;28;20076;-65
2021/11/09 02:38:53;;;;;;;65.05;10.90;;;23.70;45.60;;;;;;5059541;28;20083;-61
2021/11/09 02:41:19;;;;;;;64.18;10.68;;;23.70;45.70;;;;;;5093877;28;20092;-65
2021/11/09 02:43:46;;;;;;;76.30;11.50;;;23.70;46.00;;;;;;5075272;28;20137;-64
2021/11/09 02:52:02;;;;;;;73.43;15.68;;;23.50;46.10;;;;;;5093377;28;20591;-66
2021/11/09 02:54:34;;;;;;;63.55;15.45;;;23.40;46.10;;;;;;5075347;28;21049;-66
2021/11/09 02:57:06;;;;;;;69.30;15.07;;;23.40;46.60;;;;;;5075610;28;20084;-66
2021/11/09 03:00:01;;;;;;;91.03;15.98;;;23.30;46.60;;;;;;5075354;28;20116;-66
2021/11/09 03:07:34;;;;;;;82.25;15.85;;;23.20;48.20;;;;;;5094224;28;20065;-64
2021/11/09 03:10:08;;;;;;;;;;;23.10;48.00;;;;;;5076016;28;20457;-65
2021/11/09 03:12:37;;;;;;;70.05;14.35;;;23.10;48.30;;;;;;5092943;28;19960;-64
2021/11/09 03:15:08;;;;;;;73.03;13.80;;;23.00;49.00;;;;;;5074759;28;20170;-65
2021/11/09 03:17:46;;;;;;;71.95;16.00;;;23.00;48.80;;;;;;5076071;28;20080;-65
2021/11/09 03:20:19;;;;;;;77.88;15.48;;;23.00;49.20;;;;;;5075387;28;20115;-67
2021/11/09 03:47:22;;;;;;;80.25;13.82;;;22.50;51.00;;;;;;5097771;28;20125;-66
2021/11/09 03:49:50;;;;;;;64.22;14.52;;;22.50;50.80;;;;;;5097532;28;20145;-69
2021/11/09 03:52:27;;;;;;;67.57;14.02;;;22.50;51.20;;;;;;5079095;28;20091;-67
2021/11/09 03:55:01;;;;;;;85.28;14.63;;;22.40;52.10;;;;;;5078495;28;20065;-68
2021/11/09 03:57:39;;;;;;;78.35;14.77;;;22.40;52.50;;;;;;5079495;28;20080;-67
2021/11/09 04:00:26;;;;;;;77.03;15.52;;;22.40;52.90;;;;;;5080415;28;20108;-70
2021/11/09 04:05:42;;;;;;;81.47;15.50;;;22.20;53.50;;;;;;5068703;28;20084;-65
2021/11/09 04:10:58;;;;;;;94.75;16.42;;;22.10;53.10;;;;;;5096840;28;20526;-64
2021/11/09 04:32:01;;;;;;;96.32;22.60;;;22.10;48.40;;;;;;5037303;28;20070;-65
2021/11/09 04:51:33;;;;;;;59.72;14.13;;;22.10;47.80;;;;;;5040984;28;20119;-65
2021/11/09 05:10:03;;;;;;;27.92;6.47;;;21.90;52.10;;;;;;5095078;28;20172;-66
2021/11/09 05:12:29;;;;;;;28.58;5.53;;;21.90;52.60;;;;;;5077149;28;20187;-65
2021/11/09 05:14:55;;;;;;;25.85;5.50;;;21.90;53.00;;;;;;5076790;28;20077;-65
2021/11/09 05:17:22;;;;;;;27.30;5.70;;;21.90;53.70;;;;;;5076498;28;20453;-65
2021/11/09 05:19:50;;;;;;;28.95;6.10;;;21.80;54.40;;;;;;5077277;28;20091;-64
2021/11/09 05:22:16;;;;;;;22.80;4.95;;;21.80;55.20;;;;;;5094206;28;20081;-65
2021/11/09 05:24:43;;;;;;;27.52;4.88;;;21.80;55.50;;;;;;5076558;28;20112;-66
2021/11/09 05:27:11;;;;;;;25.08;4.22;;;21.80;55.80;;;;;;5076812;28;20155;-64
2021/11/09 05:29:39;;;;;;;20.98;4.07;;;21.80;56.00;;;;;;5093962;28;20069;-66
2021/11/09 05:32:06;;;;;;;20.05;4.25;;;21.70;56.60;;;;;;5076209;28;20080;-66
2021/11/09 05:34:32;;;;;;;21.88;5.00;;;21.70;57.10;;;;;;5076770;28;20133;-65
2021/11/09 05:36:59;;;;;;;28.20;5.45;;;21.60;57.30;;;;;;5076961;28;20099;-65
2021/11/09 05:39:34;;;;;;;28.75;5.75;;;21.60;57.70;;;;;;5050092;28;20173;-64
2021/11/09 05:42:00;;;;;;;19.80;6.22;;;21.60;58.10;;;;;;5095836;28;20060;-65
2021/11/09 05:44:28;;;;;;;21.90;5.22;;;21.50;58.30;;;;;;5076231;28;20139;-64
2021/11/09 05:46:54;;;;;;;27.48;6.38;;;21.50;58.80;;;;;;5076874;28;20108;-64
2021/11/09 05:49:21;;;;;;;22.60;6.38;;;21.40;59.30;;;;;;5094467;28;20075;-66
2021/11/09 05:51:47;;;;;;;22.60;6.70;;;21.40;59.80;;;;;;5093780;28;20792;-64
2021/11/09 05:54:14;;;;;;;20.90;7.07;;;21.40;60.20;;;;;;5076380;28;20176;-65
2021/11/09 05:56:40;;;;;;;22.60;6.88;;;21.30;60.40;;;;;;5076153;28;20072;-64
2021/11/09 05:59:07;;;;;;;17.67;6.32;;;21.30;60.60;;;;;;5094984;28;20244;-64
2021/11/09 06:01:33;;;;;;;24.90;6.88;;;21.20;61.60;;;;;;5075566;28;20080;-65
2021/11/09 06:03:59;;;;;;;23.10;7.03;;;21.20;62.40;;;;;;5076560;28;20100;-65
2021/11/09 06:06:26;;;;;;;37.92;8.48;;;21.10;62.70;;;;;;5075914;28;20164;-65
2021/11/09 06:08:52;;;;;;;16.92;7.22;;;21.00;62.90;;;;;;5059977;28;20085;-65
2021/11/09 06:11:19;;;;;;;27.92;8.55;;;21.00;63.30;;;;;;5075486;28;20092;-64
2021/11/09 06:13:46;;;;;;;35.97;8.27;;;21.00;63.50;;;;;;5076309;28;20080;-64
2021/11/09 06:16:13;;;;;;;36.28;14.07;;;21.00;63.50;;;;;;5094182;28;20139;-63
2021/11/09 06:18:39;;;;;;;53.40;20.80;;;21.00;63.40;;;;;;5095049;28;20088;-65
2021/11/09 06:21:06;;;;;;;55.83;20.80;;;20.90;64.00;;;;;;5076399;28;20099;-65
2021/11/09 06:23:32;;;;;;;53.88;22.80;;;20.90;64.30;;;;;;5076302;28;20119;-65
2021/11/09 06:25:59;;;;;;;51.42;21.48;;;20.90;64.20;;;;;;5075039;28;20104;-65
2021/11/09 06:28:26;;;;;;;49.65;22.23;;;20.80;64.40;;;;;;5094523;28;20601;-65
2021/11/09 06:30:53;;;;;;;45.10;17.67;;;20.80;65.10;;;;;;5075985;28;20534;-65
2021/11/09 06:33:21;;;;;;;38.10;15.32;;;20.80;64.80;;;;;;5059281;28;20089;-63
2021/11/09 06:35:48;;;;;;;26.65;13.30;;;20.70;64.40;;;;;;5073444;28;20080;-66
2021/11/09 06:38:15;;;;;;;35.38;13.52;;;20.70;64.70;;;;;;5074857;28;20093;-65
2021/11/09 06:40:41;;;;;;;23.95;12.38;;;20.70;65.30;;;;;;5075626;28;20542;-66
2021/11/09 06:43:08;;;;;;;35.40;12.70;;;20.70;64.90;;;;;;5092207;28;20092;-64
2021/11/09 06:45:35;;;;;;;38.13;12.98;;;20.60;65.10;;;;;;5075153;28;20423;-65
2021/11/09 06:48:02;;;;;;;33.00;11.85;;;20.60;65.10;;;;;;5075090;28;20068;-65
2021/11/09 06:50:28;;;;;;;39.33;12.48;;;20.50;65.80;;;;;;5093394;28;20084;-65
2021/11/09 06:52:55;;;;;;;27.75;10.63;;;20.50;66.50;;;;;;5075054;28;20758;-65
2021/11/09 06:55:21;;;;;;;32.70;10.70;;;20.50;66.70;;;;;;5074649;28;20085;-65
2021/11/09 06:57:48;;;;;;;40.03;11.10;;;20.50;67.00;;;;;;5074619;28;20098;-63
2021/11/09 07:00:17;;;;;;;35.40;12.10;;;20.50;67.30;;;;;;5074156;28;20133;-66
2021/11/09 07:02:44;;;;;;;45.05;11.73;;;20.40;67.30;;;;;;5077982;28;20554;-64
2021/11/09 07:05:11;;;;;;;34.80;9.98;;;20.30;67.50;;;;;;5078995;28;20167;-64
2021/11/09 07:07:39;;;;;;;32.88;11.50;;;20.40;67.60;;;;;;5079370;28;20100;-65
2021/11/09 07:10:07;;;;;;;37.42;12.10;;;20.30;67.50;;;;;;5078463;28;20072;-65
2021/11/09 07:12:35;;;;;;;43.10;12.50;;;20.20;67.50;;;;;;5078266;28;20665;-64
2021/11/09 07:15:02;;;;;;;34.45;10.43;;;20.10;68.00;;;;;;5060941;28;20068;-65
2021/11/09 07:17:28;;;;;;;33.80;10.02;;;20.00;69.00;;;;;;5076728;28;20076;-65
2021/11/09 07:19:55;;;;;;;33.50;10.48;;;20.00;69.30;;;;;;5059652;28;20099;-65
2021/11/09 07:22:23;;;;;;;34.10;10.13;;;20.00;69.60;;;;;;5079032;28;20732;-64
2021/11/09 07:24:50;;;;;;;29.52;9.23;;;20.00;70.20;;;;;;5077450;28;21124;-65
2021/11/09 07:27:17;;;;;;;36.78;10.50;;;20.00;70.80;;;;;;5095491;28;20479;-64
2021/11/09 07:29:48;;;;;;;37.67;12.80;;;19.90;71.60;;;;;;5095609;28;20064;-64
2021/11/09 07:32:21;;;;;;;33.50;10.50;;;19.90;72.00;;;;;;5076847;28;20479;-64
2021/11/09 07:34:48;;;;;;;37.13;10.65;;;19.70;72.80;;;;;;5077388;28;20073;-64
2021/11/09 07:37:14;;;;;;;25.80;10.73;;;19.60;73.40;;;;;;5076335;28;20488;-64
2021/11/09 07:39:41;;;;;;;37.67;11.52;;;19.60;73.40;;;;;;5077840;28;20083;-65
2021/11/09 07:42:08;;;;;;;36.83;10.45;;;19.60;74.00;;;;;;5076019;28;20080;-63
2021/11/09 07:44:35;;;;;;;26.73;10.25;;;19.60;74.40;;;;;;5077164;28;20534;-66
2021/11/09 07:47:01;;;;;;;35.22;9.60;;;19.60;74.50;;;;;;5077022;28;20434;-66
2021/11/09 07:49:28;;;;;;;34.15;9.60;;;19.60;74.70;;;;;;5095667;28;20072;-64
2021/11/09 07:51:55;;;;;;;42.85;10.98;;;19.60;74.60;;;;;;5077572;28;20111;-65
2021/11/09 07:54:26;;;;;;;28.20;10.45;;;19.50;75.10;;;;;;5076189;28;20112;-65
2021/11/09 07:57:01;;;;;;;35.53;10.45;;;19.50;75.20;;;;;;5094835;28;20522;-65
2021/11/09 07:59:31;;;;;;;34.80;9.32;;;19.50;75.60;;;;;;5076739;28;20127;-66
2021/11/09 08:02:45;;;;;;;36.80;10.13;;;19.50;76.60;;;;;;5094456;28;20083;-67
2021/11/09 08:05:10;;;;;;;43.53;10.27;;;19.40;75.50;;;;;;5081291;28;20097;-65
2021/11/09 08:07:46;;;;;;;41.80;11.47;;;19.40;75.60;;;;;;5094828;28;20125;-65
2021/11/09 08:10:12;;;;;;;39.28;9.50;;;19.30;76.30;;;;;;5077099;28;20072;-64
2021/11/09 08:12:38;;;;;;;;;;;19.30;76.40;;;;;;5076079;28;20080;-65
2021/11/09 08:15:05;;;;;;;40.35;10.27;;;19.30;76.90;;;;;;5095951;28;21471;-63
2021/11/09 08:17:31;;;;;;;47.33;10.38;;;19.30;77.60;;;;;;5077044;28;20080;-63
2021/11/09 08:19:57;;;;;;;49.00;9.75;;;19.30;77.80;;;;;;5095444;28;20080;-64
2021/11/09 08:22:24;;;;;;;;;;;19.20;77.60;;;;;;5077630;28;20076;-65
2021/11/09 08:24:50;;;;;;;57.80;12.10;;;19.20;77.90;;;;;;5096219;28;19960;-67
2021/11/09 08:27:17;;;;;;;52.33;13.43;;;19.20;77.70;;;;;;5077493;28;20081;-64
2021/11/09 08:29:49;;;;;;;58.28;13.65;;;19.20;77.20;;;;;;5077059;28;20108;-64
2021/11/09 08:32:16;;;;;;;72.30;15.93;;;19.10;76.90;;;;;;5062189;28;20123;-64
2021/11/09 08:34:43;;;;;;;68.28;14.73;;;19.00;77.40;;;;;;5064857;28;20131;-66
2021/11/09 08:37:09;;;;;;;61.67;15.43;;;19.00;78.30;;;;;;5064207;28;20077;-65
2021/11/09 08:39:38;;;;;;;69.57;15.57;;;18.90;78.80;;;;;;5062602;28;20576;-64
2021/11/09 08:44:47;;;;;;;57.70;15.07;;;18.70;78.20;;;;;;5063970;28;20089;-66
2021/11/09 08:47:19;;;;;;;66.68;16.50;;;18.80;79.00;;;;;;5063819;28;20164;-66
2021/11/09 08:49:47;;;;;;;68.68;16.83;;;18.80;78.00;;;;;;5082483;28;20081;-65
2021/11/09 08:52:14;;;;;;;81.88;19.58;;;18.80;78.00;;;;;;5064024;28;20081;-64
2021/11/09 08:54:52;;;;;;;72.55;20.58;;;18.70;77.80;;;;;;5080288;28;20072;-65
2021/11/09 09:05:27;;;;;;;64.38;19.92;;;18.70;77.00;;;;;;5080522;28;20178;-65
2021/11/09 09:07:54;;;;;;;67.78;17.95;;;18.60;77.20;;;;;;5061505;28;20096;-64
2021/11/09 09:10:20;;;;;;;70.78;19.42;;;18.70;77.80;;;;;;5061680;28;20161;-64
2021/11/09 09:12:47;;;;;;;68.40;19.13;;;18.70;77.30;;;;;;5062328;28;20073;-63
2021/11/09 09:15:16;;;;;;;87.43;20.52;;;18.70;78.10;;;;;;5063279;28;20083;-63
2021/11/09 09:17:43;;;;;;;73.28;19.60;;;18.80;78.20;;;;;;5063446;28;20084;-66
2021/11/09 09:20:16;;;;;;;67.18;18.25;;;18.80;77.10;;;;;;5063900;28;20504;-66
2021/11/09 09:25:42;;;;;;;82.53;20.90;;;18.80;77.80;;;;;;5081115;28;20072;-64
2021/11/09 09:31:19;;;;;;;67.80;19.85;;;18.70;77.90;;;;;;5081509;28;20108;-64
2021/11/09 09:56:20;;;;;;;71.85;20.05;;;18.60;80.00;;;;;;4988264;28;20097;-64
2021/11/09 09:58:47;;;;;;;70.22;21.10;;;18.60;80.60;;;;;;4972389;28;20456;-65
2021/11/09 10:01:15;;;;;;;75.20;20.50;;;18.60;81.00;;;;;;4989825;28;20253;-64
2021/11/09 10:03:42;;;;;;;60.55;19.70;;;18.60;80.90;;;;;;4988027;28;20103;-64
2021/11/09 10:06:09;;;;;;;66.18;20.15;;;18.60;81.10;;;;;;4988259;28;20070;-66
2021/11/09 10:08:47;;;;;;;74.40;19.55;;;18.60;80.70;;;;;;4991153;28;20480;-66
2021/11/09 10:11:36;;;;;;;64.72;21.25;;;18.50;80.50;;;;;;4984485;28;20150;-65
2021/11/09 10:14:04;;;;;;;80.93;21.17;;;18.50;81.30;;;;;;4987807;28;20615;-65
2021/11/09 10:16:34;;;;;;;84.60;23.02;;;18.40;81.10;;;;;;4972037;28;20079;-67
2021/11/09 10:19:01;;;;;;;81.30;25.23;;;18.40;81.00;;;;;;4987517;28;20719;-64
2021/11/09 10:21:38;;;;;;;92.80;26.10;;;18.40;80.70;;;;;;4991115;28;20143;-66
2021/11/09 10:24:24;;;;;;;97.53;27.92;;;18.40;79.70;;;;;;5029374;28;20234;-66
2021/11/09 10:26:51;;;;;;;85.05;25.67;;;18.30;78.90;;;;;;5061616;28;20165;-64
2021/11/09 10:29:18;;;;;;;96.30;29.10;;;18.30;79.80;;;;;;5060445;28;20087;-66
2021/11/09 10:31:46;;;;;;;96.63;28.23;;;18.40;79.90;;;;;;5061922;28;20076;-64
2021/11/09 10:34:28;;;;;;;83.15;26.23;;;18.40;79.50;;;;;;5060497;28;20134;-65
2021/11/09 10:37:16;;;;;;;86.55;27.85;;;18.40;80.00;;;;;;5063796;28;20076;-64
2021/11/09 10:39:44;;;;;;;86.97;28.40;;;18.30;80.30;;;;;;5064736;28;20080;-65
2021/11/09 10:42:12;;;;;;;93.75;27.13;;;18.20;80.90;;;;;;5064621;28;20091;-66
2021/11/09 10:44:40;;;;;;;90.55;28.30;;;18.30;80.90;;;;;;5085079;28;20088;-65
2021/11/09 10:47:22;;;;;;;98.57;27.02;;;18.40;80.30;;;;;;5065569;28;20096;-65
2021/11/09 10:50:01;;;;;;;89.18;25.63;;;18.40;79.60;;;;;;5083680;28;20081;-64
2021/11/09 10:52:37;;;;;;;76.90;24.17;;;18.50;79.00;;;;;;5065491;28;20140;-66
2021/11/09 10:58:13;;;;;;;80.03;24.95;;;18.40;78.60;;;;;;5084396;28;20125;-66
2021/11/09 11:06:19;;;;;;;92.65;25.80;;;18.50;78.60;;;;;;5066753;28;20100;-65
2021/11/09 11:08:48;;;;;;;100.03;25.33;;;18.50;78.60;;;;;;5065908;28;20087;-64
2021/11/09 11:11:31;;;;;;;87.22;25.92;;;18.50;78.00;;;;;;5063633;28;20092;-64
2021/11/09 11:14:10;;;;;;;87.97;24.45;;;18.40;78.10;;;;;;5065646;28;20132;-65
2021/11/09 11:17:07;;;;;;;92.20;23.70;;;18.40;78.40;;;;;;5065448;28;20106;-64
2021/11/09 11:19:39;;;;;;;69.87;24.40;;;18.40;79.10;;;;;;5004007;28;20564;-64
2021/11/09 11:22:09;;;;;;;96.82;25.33;;;18.40;79.00;;;;;;4997597;28;20078;-65
2021/11/09 11:24:36;;;;;;;78.40;24.77;;;18.40;79.80;;;;;;5014200;28;20113;-65
2021/11/09 11:27:04;;;;;;;82.03;24.08;;;18.40;80.70;;;;;;5016262;28;20519;-64
2021/11/09 11:29:34;;;;;;;74.03;23.63;;;18.40;80.10;;;;;;5012370;28;20188;-64
2021/11/09 11:32:01;;;;;;;85.40;25.65;;;18.30;79.80;;;;;;4988383;28;20092;-65
2021/11/09 11:34:29;;;;;;;88.18;25.77;;;18.30;80.60;;;;;;5001768;28;20086;-65
2021/11/09 11:36:56;;;;;;;87.82;26.25;;;18.30;80.00;;;;;;5001172;28;20180;-66
2021/11/09 11:39:25;;;;;;;84.80;26.85;;;18.30;80.50;;;;;;5001043;28;20078;-64
2021/11/09 11:41:57;;;;;;;74.22;24.48;;;18.40;81.30;;;;;;5015923;28;20109;-65
2021/11/09 11:44:25;;;;;;;84.32;25.02;;;18.40;81.30;;;;;;4996983;28;20122;-65
2021/11/09 11:47:23;;;;;;;89.35;25.02;;;18.30;81.60;;;;;;4997981;28;20081;-65
2021/11/09 11:49:53;;;;;;;84.07;25.95;;;18.30;82.10;;;;;;5000305;28;20542;-64
2021/11/09 11:52:41;;;;;;;96.90;26.30;;;18.30;82.60;;;;;;4999171;28;20182;-63
2021/11/09 11:55:24;;;;;;;83.53;24.80;;;18.30;82.60;;;;;;5006670;28;20123;-64
2021/11/09 11:57:52;;;;;;;92.47;26.00;;;18.40;82.60;;;;;;5083158;28;20443;-63
2021/11/09 12:00:33;;;;;;;87.18;24.38;;;18.40;82.50;;;;;;5062941;28;20136;-64
2021/11/09 12:03:03;;;;;;;95.15;27.40;;;18.40;83.30;;;;;;5082963;28;20502;-63
2021/11/09 12:05:43;;;;;;;84.93;27.80;;;18.40;84.70;;;;;;5064246;28;20077;-65
2021/11/09 12:08:12;;;;;;;80.32;27.42;;;18.50;85.30;;;;;;5064309;28;20079;-66
2021/11/09 12:10:51;;;;;;;91.20;30.27;;;18.60;85.60;;;;;;5048034;28;20434;-65
2021/11/09 12:13:19;;;;;;;82.00;32.63;;;18.60;87.00;;;;;;5064684;28;20106;-65
2021/11/09 12:16:05;;;;;;;90.22;34.80;;;18.60;89.10;;;;;;5081887;28;20159;-66
2021/11/09 12:18:35;;;;;;;95.13;36.95;;;18.50;90.80;;;;;;5051286;28;20076;-66
2021/11/09 12:21:29;;;;;;;78.32;37.22;;;18.50;92.40;;;;;;5065413;28;20084;-66
2021/11/09 12:24:19;;;;;;;88.15;36.95;;;18.50;93.60;;;;;;5061924;28;20104;-63
2021/11/09 12:26:48;;;;;;;103.68;37.70;;;18.50;94.90;;;;;;5063586;28;20087;-64
2021/11/09 12:29:36;;;;;;;89.28;38.47;;;18.50;95.60;;;;;;5081736;28;20064;-64
2021/11/09 12:32:36;;;;;;;97.15;39.13;;;18.50;96.70;;;;;;5062171;28;20073;-64
2021/11/09 12:35:34;;;;;;;97.68;37.85;;;18.50;97.40;;;;;;5081434;28;20085;-65
2021/11/09 12:38:03;;;;;;;82.88;37.70;;;18.60;98.50;;;;;;5060526;28;20081;-64
2021/11/09 12:40:47;;;;;;;101.03;39.28;;;18.60;99.80;;;;;;5062861;28;20148;-64
2021/11/09 12:43:32;;;;;;;101.88;39.88;;;18.60;99.90;;;;;;5081606;28;20077;-64
2021/11/09 12:46:12;;;;;;;82.93;39.20;;;18.50;99.90;;;;;;5062172;28;20165;-67
2021/11/09 12:48:52;;;;;;;89.60;39.30;;;18.50;99.90;;;;;;5047805;28;20119;-64
2021/11/09 12:51:49;;;;;;;88.30;38.05;;;18.50;99.90;;;;;;5044438;28;20450;-64
2021/11/09 12:54:20;;;;;;;85.63;38.60;;;18.40;99.90;;;;;;5060533;28;20093;-63
2021/11/09 12:56:57;;;;;;;79.82;35.85;;;18.40;99.90;;;;;;5063450;28;20454;-65
2021/11/09 13:02:39;;;;;;;88.90;35.17;;;18.40;99.90;;;;;;5021239;28;20078;-65
2021/11/09 13:05:14;;;;;;;79.40;35.70;;;18.30;99.90;;;;;;5022389;28;20172;-65
2021/11/09 13:07:45;;;;;;;83.75;36.38;;;18.40;99.90;;;;;;5019725;28;20066;-64
2021/11/09 13:10:38;;;;;;;86.15;36.30;;;18.40;99.90;;;;;;5012214;28;20092;-63
2021/11/09 13:13:04;;;;;;;83.22;35.53;;;18.30;99.90;;;;;;5012471;28;20459;-64
2021/11/09 13:15:32;;;;;;;74.40;34.05;;;18.30;99.90;;;;;;4995493;28;20074;-63
2021/11/09 13:18:05;;;;;;;80.30;33.58;;;18.20;99.90;;;;;;5011328;28;20108;-65
2021/11/09 13:20:35;;;;;;;86.72;32.85;;;18.20;99.90;;;;;;5009701;28;20128;-67
2021/11/09 13:23:12;;;;;;;63.17;28.90;;;18.10;99.90;;;;;;5015907;28;20145;-65
2021/11/09 13:25:48;;;;;;;58.78;28.65;;;18.00;99.90;;;;;;5011605;28;20164;-66
2021/11/09 13:28:37;;;;;;;58.55;27.35;;;18.00;99.90;;;;;;5021985;28;20471;-61
2021/11/09 13:31:09;;;;;;;53.65;27.48;;;18.00;99.90;;;;;;5004946;28;20464;-64
2021/11/09 13:33:46;;;;;;;52.53;24.38;;;18.00;99.90;;;;;;5014485;28;20083;-65
2021/11/09 13:36:16;;;;;;;52.03;25.88;;;18.00;99.90;;;;;;5030056;28;20080;-63
2021/11/09 13:38:43;;;;;;;59.72;27.98;;;18.00;99.90;;;;;;5062651;28;20084;-63
2021/11/09 13:41:20;;;;;;;55.03;25.25;;;18.10;99.90;;;;;;5045363;28;20080;-65
2021/11/09 13:43:56;;;;;;;55.28;26.38;;;18.10;99.90;;;;;;5046079;28;20115;-65
2021/11/09 13:46:32;;;;;;;60.85;28.45;;;18.10;99.90;;;;;;5047032;28;20171;-64
2021/11/09 13:49:05;;;;;;;48.77;25.60;;;18.00;99.90;;;;;;5060838;28;20065;-64
2021/11/09 13:51:39;;;;;;;65.40;27.52;;;18.00;99.90;;;;;;5062087;28;20096;-65
2021/11/09 13:54:14;;;;;;;50.35;26.80;;;18.00;99.90;;;;;;5046509;28;20132;-66
2021/11/09 13:56:46;;;;;;;57.58;26.02;;;18.00;99.90;;;;;;5063453;28;20079;-67
2021/11/09 13:59:14;;;;;;;67.13;27.17;;;17.90;99.90;;;;;;5062250;28;20522;-66
2021/11/09 14:02:14;;;;;;;51.70;27.77;;;17.90;99.90;;;;;;5060480;28;20554;-67
2021/11/09 14:13:32;;;;;;;57.78;27.70;;;17.80;99.90;;;;;;5080609;28;20068;-64
2021/11/09 14:16:17;;;;;;;56.63;28.95;;;17.70;99.90;;;;;;5064971;28;20165;-66
2021/11/09 14:18:53;;;;;;;54.10;26.92;;;17.70;99.90;;;;;;5062449;28;20097;-65
2021/11/09 14:21:44;;;;;;;56.60;27.43;;;17.70;99.90;;;;;;5061302;28;20077;-63
2021/11/09 14:24:20;;;;;;;57.67;28.38;;;17.60;99.90;;;;;;5044635;28;20821;-63
2021/11/09 14:27:00;;;;;;;54.10;26.95;;;17.50;99.90;;;;;;5061002;28;20087;-65
2021/11/09 14:29:27;;;;;;;55.90;26.38;;;17.50;99.90;;;;;;5061982;28;20100;-64
2021/11/09 14:32:21;;;;;;;42.97;26.00;;;17.50;99.90;;;;;;5045139;28;20065;-64
2021/11/09 14:38:10;;;;;;;54.38;25.85;;;17.60;99.90;;;;;;5078758;28;20140;-64
2021/11/09 14:41:00;;;;;;;61.17;27.38;;;17.70;99.90;;;;;;5051244;28;20077;-64
2021/11/09 14:43:37;;;;;;;57.95;29.48;;;17.80;99.90;;;;;;5046096;28;20150;-65
2021/11/09 14:46:11;;;;;;;60.00;31.02;;;17.80;99.90;;;;;;5050358;28;20072;-65
2021/11/09 14:49:01;;;;;;;58.47;32.25;;;17.80;99.90;;;;;;5070823;28;20088;-63
2021/11/09 14:51:28;;;;;;;67.65;34.17;;;17.80;99.90;;;;;;5080958;28;20555;-64
2021/11/09 14:56:34;;;;;;;65.43;34.38;;;17.80;99.90;;;;;;5080988;28;20069;-64
2021/11/09 14:59:02;;;;;;;79.17;36.53;;;17.80;99.90;;;;;;5060764;28;20073;-64
2021/11/09 15:01:56;;;;;;;63.67;34.17;;;17.90;99.90;;;;;;5053704;28;20199;-66
2021/11/09 15:07:23;;;;;;;68.43;38.33;;;18.00;99.90;;;;;;5089600;28;20084;-62
2021/11/09 15:10:28;;;;;;;76.78;41.42;;;18.10;99.90;;;;;;5071062;28;20085;-65
2021/11/09 15:13:08;;;;;;;77.60;43.10;;;18.10;99.90;;;;;;5079643;28;20076;-64
2021/11/09 15:31:56;;;;;;;64.15;33.70;;;18.70;99.90;;;;;;5091504;28;20069;-64
2021/11/09 15:39:49;;;;;;;61.40;30.25;;;19.00;99.90;;;;;;5074094;28;20077;-64
2021/11/09 15:42:17;;;;;;;56.97;27.73;;;19.00;99.90;;;;;;5073262;28;20068;-64
2021/11/09 15:44:44;;;;;;;63.70;28.63;;;19.20;99.90;;;;;;5074204;28;20088;-64
2021/11/09 15:47:10;;;;;;;50.55;27.02;;;19.40;99.90;;;;;;5074427;28;20096;-65
2021/11/09 15:49:37;;;;;;;57.25;25.45;;;19.60;99.90;;;;;;5074444;28;20092;-63
2021/11/09 15:52:04;;;;;;;58.28;24.05;;;19.80;99.90;;;;;;5075304;28;20065;-64
2021/11/09 15:54:30;;;;;;;52.55;24.80;;;20.00;99.90;;;;;;5074015;28;20560;-64